Time;durP1;ratioP1;P1;durP2;ratioP2;P2;SDS_P1;SDS_P2;PMS_P1;PMS_P2;Temp;Humidity;BMP_temperature;BMP_pressure;BME280_temperature;BME280_humidity;BME280_pressure;Samples;Min_cycle;Max_cycle;Signal;HPM_P1;HPM_P2
2023/06/29 00:01:45;;;;;;;15.85;9.35;;;;;;;;;;5013241;28;20038;-68
2023/06/29 00:04:11;;;;;;;17.00;9.00;;;;;;;;;;5013186;28;20032;-68
2023/06/29 00:06:37;;;;;;;12.07;7.97;;;;;;;;;;5013253;28;20422;-68
2023/06/29 00:09:04;;;;;;;12.98;8.10;;;;;;;;;;5012834;28;20121;-69
2023/06/29 00:11:30;;;;;;;13.45;8.10;;;;;;;;;;5013174;28;20026;-69
2023/06/29 00:13:56;;;;;;;9.93;7.90;;;;;;;;;;5013244;28;20081;-69
2023/06/29 00:16:22;;;;;;;11.82;7.88;;;;;;;;;;5014753;28;20022;-69
2023/06/29 00:18:49;;;;;;;14.07;8.55;;;;;;;;;;5016613;28;20026;-68
2023/06/29 00:21:15;;;;;;;17.88;8.93;;;;;;;;;;5016385;28;20026;-69
2023/06/29 00:23:41;;;;;;;19.33;9.80;;;;;;;;;;5016455;28;20475;-69
2023/06/29 00:26:07;;;;;;;14.52;9.23;;;;;;;;;;5016152;28;20032;-69
2023/06/29 00:28:33;;;;;;;11.50;7.90;;;;;;;;;;5016291;28;20113;-69
2023/06/29 00:30:59;;;;;;;13.48;7.88;;;;;;;;;;5016398;28;20030;-69
2023/06/29 00:33:25;;;;;;;10.05;7.63;;;;;;;;;;5016344;28;20442;-69
2023/06/29 00:35:51;;;;;;;13.40;8.77;;;;;;;;;;5016279;28;20121;-69
2023/06/29 00:38:17;;;;;;;14.82;7.45;;;;;;;;;;5016251;28;20119;-69
2023/06/29 00:40:43;;;;;;;15.15;8.48;;;;;;;;;;5016193;28;20041;-69
2023/06/29 00:43:09;;;;;;;13.35;9.25;;;;;;;;;;5016003;28;20084;-69
2023/06/29 00:45:35;;;;;;;12.68;7.82;;;;;;;;;;5015935;28;20442;-69
2023/06/29 00:48:01;;;;;;;13.98;8.13;;;;;;;;;;5016031;28;20030;-69
2023/06/29 00:50:27;;;;;;;14.60;9.27;;;;;;;;;;5015964;28;20026;-69
2023/06/29 00:52:53;;;;;;;15.05;8.75;;;;;;;;;;5015975;28;20037;-68
2023/06/29 00:55:19;;;;;;;15.70;9.02;;;;;;;;;;5015913;28;20037;-69
2023/06/29 00:57:46;;;;;;;16.15;8.55;;;;;;;;;;5015853;28;20026;-69
2023/06/29 01:00:12;;;;;;;16.85;8.73;;;;;;;;;;5015851;28;20040;-69
2023/06/29 01:02:40;;;;;;;17.67;9.02;;;;;;;;;;5015466;28;20145;-69
2023/06/29 01:05:09;;;;;;;14.02;8.88;;;;;;;;;;5015768;28;20026;-68
2023/06/29 01:07:41;;;;;;;14.23;8.15;;;;;;;;;;5015594;28;20041;-69
2023/06/29 01:10:09;;;;;;;19.30;10.82;;;;;;;;;;5015421;28;20076;-69
2023/06/29 01:12:35;;;;;;;21.20;10.38;;;;;;;;;;5015570;28;20037;-68
2023/06/29 01:15:02;;;;;;;14.50;10.40;;;;;;;;;;5015143;28;20037;-69
2023/06/29 01:17:30;;;;;;;12.30;8.98;;;;;;;;;;5015464;28;20033;-69
2023/06/29 01:19:57;;;;;;;17.33;9.48;;;;;;;;;;5015614;28;20022;-69
2023/06/29 01:22:29;;;;;;;12.27;8.40;;;;;;;;;;5015558;28;20029;-69
2023/06/29 01:24:55;;;;;;;17.00;10.52;;;;;;;;;;5015075;28;20088;-69
2023/06/29 01:27:21;;;;;;;14.27;10.30;;;;;;;;;;5014865;28;20033;-69
2023/06/29 01:29:47;;;;;;;14.50;9.82;;;;;;;;;;5015081;28;20026;-69
2023/06/29 01:32:14;;;;;;;15.57;9.07;;;;;;;;;;5014819;28;20064;-69
2023/06/29 01:34:40;;;;;;;14.00;9.00;;;;;;;;;;5015183;28;20030;-69
2023/06/29 01:37:11;;;;;;;15.50;9.65;;;;;;;;;;5015181;28;20026;-69
2023/06/29 01:39:43;;;;;;;17.90;9.93;;;;;;;;;;5015301;28;20034;-69
2023/06/29 01:42:10;;;;;;;10.77;7.63;;;;;;;;;;5014954;28;20036;-69
2023/06/29 01:44:36;;;;;;;15.60;9.18;;;;;;;;;;5014855;28;20257;-69
2023/06/29 01:47:02;;;;;;;14.85;9.07;;;;;;;;;;5015031;28;20033;-69
2023/06/29 01:49:28;;;;;;;17.60;9.77;;;;;;;;;;5014738;28;20037;-69
2023/06/29 01:51:54;;;;;;;15.73;9.95;;;;;;;;;;5014858;28;20387;-69
2023/06/29 01:54:20;;;;;;;15.73;8.73;;;;;;;;;;5014818;28;20037;-68
2023/06/29 01:56:46;;;;;;;15.25;9.00;;;;;;;;;;5014780;28;20025;-69
2023/06/29 01:59:12;;;;;;;11.90;9.07;;;;;;;;;;5014755;28;20132;-69
2023/06/29 02:01:38;;;;;;;15.70;9.25;;;;;;;;;;5014858;28;20491;-68
2023/06/29 02:04:04;;;;;;;20.65;10.20;;;;;;;;;;5014312;28;20038;-69
2023/06/29 02:06:30;;;;;;;14.95;9.80;;;;;;;;;;5014706;28;20025;-68
2023/06/29 02:08:56;;;;;;;15.25;8.73;;;;;;;;;;5014292;28;20060;-69
2023/06/29 02:11:22;;;;;;;13.10;8.52;;;;;;;;;;5014479;28;20038;-69
2023/06/29 02:13:48;;;;;;;13.07;9.15;;;;;;;;;;5014406;28;20121;-69
2023/06/29 02:16:14;;;;;;;18.52;9.43;;;;;;;;;;5014530;28;20383;-69
2023/06/29 02:18:40;;;;;;;12.70;8.43;;;;;;;;;;5014474;28;20395;-69
2023/06/29 02:21:06;;;;;;;14.75;8.98;;;;;;;;;;5014103;28;20037;-69
2023/06/29 02:23:32;;;;;;;15.55;9.52;;;;;;;;;;5014344;28;20047;-69
2023/06/29 02:25:58;;;;;;;12.50;9.20;;;;;;;;;;5013997;28;20030;-69
2023/06/29 02:28:24;;;;;;;13.52;8.93;;;;;;;;;;5014183;28;20176;-69
2023/06/29 02:30:49;;;;;;;16.42;9.32;;;;;;;;;;5014243;28;20499;-69
2023/06/29 02:33:15;;;;;;;13.43;8.57;;;;;;;;;;5014233;28;20026;-68
2023/06/29 02:35:41;;;;;;;12.27;8.00;;;;;;;;;;5014216;28;20022;-69
2023/06/29 02:38:07;;;;;;;12.60;7.95;;;;;;;;;;5013904;28;20387;-69
2023/06/29 02:40:33;;;;;;;12.13;7.57;;;;;;;;;;5014055;28;20026;-69
2023/06/29 02:42:59;;;;;;;19.73;9.10;;;;;;;;;;5013931;28;20038;-69
2023/06/29 02:45:25;;;;;;;13.57;7.78;;;;;;;;;;5014001;28;20084;-69
2023/06/29 02:47:51;;;;;;;15.88;9.05;;;;;;;;;;5013907;28;20103;-68
2023/06/29 02:50:17;;;;;;;12.60;7.85;;;;;;;;;;5013558;28;20030;-69
2023/06/29 02:52:43;;;;;;;11.27;8.10;;;;;;;;;;5013585;28;20026;-69
2023/06/29 02:55:09;;;;;;;15.55;9.15;;;;;;;;;;5013887;28;20036;-69
2023/06/29 02:57:35;;;;;;;14.15;9.82;;;;;;;;;;5013804;28;20121;-68
2023/06/29 03:00:02;;;;;;;17.40;9.50;;;;;;;;;;5013786;28;20029;-69
2023/06/29 03:02:28;;;;;;;15.52;9.65;;;;;;;;;;5013724;28;20057;-69
2023/06/29 03:04:54;;;;;;;17.45;9.75;;;;;;;;;;5013728;28;20100;-69
2023/06/29 03:07:20;;;;;;;17.45;9.93;;;;;;;;;;5013519;28;20387;-69
2023/06/29 03:09:46;;;;;;;17.50;9.57;;;;;;;;;;5013487;28;20026;-68
2023/06/29 03:12:12;;;;;;;13.02;8.95;;;;;;;;;;5013298;28;20026;-69
2023/06/29 03:14:38;;;;;;;14.93;8.02;;;;;;;;;;5013641;28;20026;-69
2023/06/29 03:17:05;;;;;;;10.23;7.88;;;;;;;;;;5013541;28;20030;-70
2023/06/29 03:19:31;;;;;;;13.88;9.05;;;;;;;;;;5013663;28;20028;-69
2023/06/29 03:21:57;;;;;;;19.33;10.20;;;;;;;;;;5013772;28;20034;-69
2023/06/29 03:24:23;;;;;;;11.32;7.90;;;;;;;;;;5013559;28;20392;-69
2023/06/29 03:26:49;;;;;;;17.00;9.35;;;;;;;;;;5013533;28;20516;-69
2023/06/29 03:29:15;;;;;;;14.20;8.05;;;;;;;;;;5013306;28;20069;-69
2023/06/29 03:31:40;;;;;;;18.23;10.27;;;;;;;;;;5013506;28;20022;-69
2023/06/29 03:34:06;;;;;;;19.52;10.13;;;;;;;;;;5013572;28;20026;-68
2023/06/29 03:36:32;;;;;;;16.33;9.45;;;;;;;;;;5013452;28;20379;-69
2023/06/29 03:38:58;;;;;;;12.73;8.57;;;;;;;;;;5013438;28;20045;-69
2023/06/29 03:41:24;;;;;;;10.55;8.23;;;;;;;;;;5013328;28;20030;-69
2023/06/29 03:43:50;;;;;;;11.75;8.20;;;;;;;;;;5013339;28;20176;-69
2023/06/29 03:46:16;;;;;;;16.75;7.70;;;;;;;;;;5013290;28;20072;-69
2023/06/29 03:48:42;;;;;;;13.10;7.85;;;;;;;;;;5013223;28;20034;-69
2023/06/29 03:51:08;;;;;;;13.43;8.45;;;;;;;;;;5014894;28;20038;-69
2023/06/29 03:53:34;;;;;;;15.52;9.07;;;;;;;;;;5017222;28;20038;-69
2023/06/29 03:56:00;;;;;;;13.50;8.38;;;;;;;;;;5017167;28;20442;-68
2023/06/29 03:58:26;;;;;;;13.88;8.43;;;;;;;;;;5016863;28;20410;-68
2023/06/29 04:00:52;;;;;;;13.25;8.65;;;;;;;;;;5016688;28;20510;-68
2023/06/29 04:03:18;;;;;;;16.23;9.02;;;;;;;;;;5016984;28;20031;-68
2023/06/29 04:05:44;;;;;;;14.45;8.95;;;;;;;;;;5016955;28;20025;-68
2023/06/29 04:08:10;;;;;;;16.83;9.10;;;;;;;;;;5016606;28;20061;-69
2023/06/29 04:10:35;;;;;;;16.70;9.07;;;;;;;;;;5016807;28;20026;-68
2023/06/29 04:13:02;;;;;;;16.08;9.73;;;;;;;;;;5016824;28;20026;-68
2023/06/29 04:15:28;;;;;;;16.38;9.52;;;;;;;;;;5016777;28;20502;-68
2023/06/29 04:17:54;;;;;;;17.45;9.63;;;;;;;;;;5016642;28;20026;-68
2023/06/29 04:20:20;;;;;;;15.02;9.10;;;;;;;;;;5016520;28;20033;-69
2023/06/29 04:22:45;;;;;;;16.83;9.20;;;;;;;;;;5016604;28;20476;-68
2023/06/29 04:25:11;;;;;;;20.13;9.27;;;;;;;;;;5016573;28;20029;-68
2023/06/29 04:27:37;;;;;;;17.48;8.63;;;;;;;;;;5016481;28;20026;-68
2023/06/29 04:30:04;;;;;;;15.45;8.93;;;;;;;;;;5016264;28;20041;-68
2023/06/29 04:32:30;;;;;;;16.23;9.02;;;;;;;;;;5016548;28;20034;-68
2023/06/29 04:34:56;;;;;;;15.10;10.07;;;;;;;;;;5016254;28;20030;-68
2023/06/29 04:37:22;;;;;;;12.00;8.38;;;;;;;;;;5016347;28;20522;-68
2023/06/29 04:39:48;;;;;;;13.05;8.70;;;;;;;;;;5016282;28;20033;-69
2023/06/29 04:42:16;;;;;;;14.80;8.93;;;;;;;;;;5016233;28;20068;-68
2023/06/29 04:44:44;;;;;;;19.70;9.85;;;;;;;;;;5016094;28;20048;-69
2023/06/29 04:47:10;;;;;;;17.35;9.38;;;;;;;;;;5016154;28;20038;-69
2023/06/29 04:49:37;;;;;;;16.23;9.25;;;;;;;;;;5015878;28;20026;-69
2023/06/29 04:52:05;;;;;;;18.00;9.48;;;;;;;;;;5016139;28;20050;-68
2023/06/29 04:54:31;;;;;;;16.90;8.68;;;;;;;;;;5016080;28;20503;-68
2023/06/29 04:56:56;;;;;;;18.42;9.52;;;;;;;;;;5015947;28;20022;-69
2023/06/29 04:59:25;;;;;;;15.15;8.60;;;;;;;;;;5015807;28;20057;-68
2023/06/29 05:01:51;;;;;;;14.95;9.13;;;;;;;;;;5015404;28;20376;-68
2023/06/29 05:04:17;;;;;;;14.05;9.88;;;;;;;;;;5015733;28;20491;-68
2023/06/29 05:06:43;;;;;;;15.73;9.43;;;;;;;;;;5015711;28;20042;-68
2023/06/29 05:09:09;;;;;;;17.08;9.23;;;;;;;;;;5015197;28;20406;-68
2023/06/29 05:11:35;;;;;;;19.20;9.93;;;;;;;;;;5015683;28;20021;-69
2023/06/29 05:14:01;;;;;;;18.27;9.43;;;;;;;;;;5015581;28;20076;-69
2023/06/29 05:16:28;;;;;;;14.32;8.55;;;;;;;;;;5015474;28;20030;-68
2023/06/29 05:18:54;;;;;;;10.80;8.02;;;;;;;;;;5015255;28;20030;-68
2023/06/29 05:21:21;;;;;;;13.30;7.93;;;;;;;;;;5015475;28;20034;-68
2023/06/29 05:23:47;;;;;;;13.48;8.60;;;;;;;;;;5015353;28;20037;-68
2023/06/29 05:26:13;;;;;;;14.88;8.93;;;;;;;;;;5015419;28;20041;-69
2023/06/29 05:28:39;;;;;;;15.40;8.45;;;;;;;;;;5015176;28;20029;-68
2023/06/29 05:31:05;;;;;;;14.27;8.82;;;;;;;;;;5015290;28;20029;-68
2023/06/29 05:33:31;;;;;;;15.68;8.82;;;;;;;;;;5015294;28;20480;-69
2023/06/29 05:35:57;;;;;;;13.65;7.97;;;;;;;;;;5014832;28;20022;-68
2023/06/29 05:38:24;;;;;;;14.75;8.90;;;;;;;;;;5015115;28;20116;-69
2023/06/29 05:40:50;;;;;;;12.80;8.55;;;;;;;;;;5015118;28;20029;-68
2023/06/29 05:43:16;;;;;;;16.98;8.55;;;;;;;;;;5015103;28;20037;-69
2023/06/29 05:45:42;;;;;;;15.68;7.95;;;;;;;;;;5015062;28;20034;-69
2023/06/29 05:48:08;;;;;;;17.45;8.77;;;;;;;;;;5014974;28;20033;-68
2023/06/29 05:50:34;;;;;;;11.82;7.57;;;;;;;;;;5015048;28;20083;-68
2023/06/29 05:53:00;;;;;;;13.38;8.07;;;;;;;;;;5014957;28;20033;-69
2023/06/29 05:55:26;;;;;;;12.05;8.43;;;;;;;;;;5014803;28;20022;-68
2023/06/29 05:57:52;;;;;;;15.75;8.57;;;;;;;;;;5014100;28;20022;-68
2023/06/29 06:00:18;;;;;;;14.68;8.32;;;;;;;;;;5014640;28;20052;-69
2023/06/29 06:02:44;;;;;;;13.77;8.52;;;;;;;;;;5014758;28;20494;-69
2023/06/29 06:05:10;;;;;;;12.20;8.00;;;;;;;;;;5014560;28;20025;-69
2023/06/29 06:07:36;;;;;;;15.73;8.88;;;;;;;;;;5013505;28;20065;-69
2023/06/29 06:10:03;;;;;;;17.48;8.98;;;;;;;;;;5013792;28;20416;-69
2023/06/29 06:12:29;;;;;;;12.80;7.65;;;;;;;;;;5014115;28;20030;-69
2023/06/29 06:14:55;;;;;;;16.20;8.80;;;;;;;;;;5013698;28;20426;-69
2023/06/29 06:17:21;;;;;;;14.27;7.93;;;;;;;;;;5014051;28;20026;-69
2023/06/29 06:19:47;;;;;;;14.30;8.75;;;;;;;;;;5013456;28;20036;-69
2023/06/29 06:22:13;;;;;;;15.13;9.05;;;;;;;;;;5012967;28;20026;-68
2023/06/29 06:24:39;;;;;;;16.55;8.50;;;;;;;;;;5011022;28;20038;-68
2023/06/29 06:27:05;;;;;;;17.02;9.00;;;;;;;;;;5012034;28;20065;-68
2023/06/29 06:29:31;;;;;;;14.20;9.43;;;;;;;;;;5011911;28;20479;-68
2023/06/29 06:31:57;;;;;;;14.75;8.00;;;;;;;;;;5011883;28;20021;-69
2023/06/29 06:34:23;;;;;;;15.07;8.45;;;;;;;;;;5011836;28;20084;-69
2023/06/29 06:36:49;;;;;;;11.75;8.13;;;;;;;;;;5011531;28;20092;-69
2023/06/29 06:39:15;;;;;;;16.10;8.73;;;;;;;;;;5013353;28;20398;-68
2023/06/29 06:41:41;;;;;;;15.40;9.00;;;;;;;;;;5014527;28;20073;-68
2023/06/29 06:44:08;;;;;;;15.38;8.50;;;;;;;;;;5014118;28;20088;-68
2023/06/29 06:46:34;;;;;;;13.00;8.13;;;;;;;;;;5014084;28;20084;-67
2023/06/29 06:49:00;;;;;;;14.02;8.93;;;;;;;;;;5013032;28;20041;-68
2023/06/29 06:51:27;;;;;;;14.90;9.02;;;;;;;;;;5013754;28;20120;-67
2023/06/29 06:53:54;;;;;;;18.77;8.52;;;;;;;;;;5013917;28;20061;-68
2023/06/29 06:56:20;;;;;;;14.57;8.70;;;;;;;;;;5013241;28;20079;-69
2023/06/29 06:58:45;;;;;;;14.95;8.57;;;;;;;;;;5012679;28;20041;-68
2023/06/29 07:01:13;;;;;;;12.90;8.55;;;;;;;;;;5012736;28;20042;-68
2023/06/29 07:03:39;;;;;;;15.88;9.30;;;;;;;;;;5013129;28;20124;-68
2023/06/29 07:06:05;;;;;;;13.82;8.38;;;;;;;;;;5013458;28;20073;-68
2023/06/29 07:08:32;;;;;;;15.80;9.10;;;;;;;;;;5013247;28;20046;-68
2023/06/29 07:10:58;;;;;;;15.40;8.77;;;;;;;;;;5013573;28;20048;-68
2023/06/29 07:13:24;;;;;;;13.82;8.80;;;;;;;;;;5012792;28;20018;-68
2023/06/29 07:15:50;;;;;;;13.95;8.60;;;;;;;;;;5012572;28;20026;-68
2023/06/29 07:18:16;;;;;;;14.25;8.23;;;;;;;;;;5012672;28;20471;-68
2023/06/29 07:20:42;;;;;;;14.10;8.35;;;;;;;;;;5012960;28;20025;-69
2023/06/29 07:23:10;;;;;;;12.27;7.68;;;;;;;;;;5013539;28;20053;-68
2023/06/29 07:25:35;;;;;;;12.32;7.47;;;;;;;;;;5015800;28;20455;-69
2023/06/29 07:28:01;;;;;;;14.23;7.90;;;;;;;;;;5017653;28;20056;-69
2023/06/29 07:30:27;;;;;;;12.48;7.68;;;;;;;;;;5017160;28;20037;-69
2023/06/29 07:32:53;;;;;;;12.82;7.63;;;;;;;;;;5017466;28;20455;-68
2023/06/29 07:35:19;;;;;;;14.63;7.35;;;;;;;;;;5017416;28;20030;-69
2023/06/29 07:37:45;;;;;;;14.45;7.72;;;;;;;;;;5017116;28;20030;-68
2023/06/29 07:40:11;;;;;;;12.45;7.82;;;;;;;;;;5016699;28;20063;-69
2023/06/29 07:42:38;;;;;;;13.75;7.13;;;;;;;;;;5017254;28;20491;-69
2023/06/29 07:45:05;;;;;;;17.20;7.50;;;;;;;;;;5016787;28;20019;-68
2023/06/29 07:47:31;;;;;;;11.60;7.25;;;;;;;;;;5016837;28;20041;-68
2023/06/29 07:49:57;;;;;;;13.85;8.52;;;;;;;;;;5016586;28;20038;-69
2023/06/29 07:52:24;;;;;;;11.10;7.80;;;;;;;;;;5016780;28;20030;-68
2023/06/29 07:54:50;;;;;;;15.38;7.78;;;;;;;;;;5016865;28;20021;-69
2023/06/29 07:57:16;;;;;;;16.17;7.70;;;;;;;;;;5016390;28;20041;-69
2023/06/29 07:59:42;;;;;;;9.00;7.35;;;;;;;;;;5016993;28;20088;-70
2023/06/29 08:02:08;;;;;;;15.10;7.72;;;;;;;;;;5017003;28;20475;-70
2023/06/29 08:04:34;;;;;;;16.33;7.25;;;;;;;;;;5017004;28;20033;-70
2023/06/29 08:07:00;;;;;;;10.75;7.07;;;;;;;;;;5016792;28;20037;-70
2023/06/29 08:09:26;;;;;;;19.77;8.80;;;;;;;;;;5016295;28;20173;-68
2023/06/29 08:11:52;;;;;;;10.20;7.10;;;;;;;;;;5016362;28;20029;-70
2023/06/29 08:14:18;;;;;;;17.30;7.78;;;;;;;;;;5016317;28;20045;-70
2023/06/29 08:16:44;;;;;;;12.23;6.97;;;;;;;;;;5016444;28;20105;-70
2023/06/29 08:19:10;;;;;;;11.88;7.10;;;;;;;;;;5016455;28;20032;-70
2023/06/29 08:21:35;;;;;;;16.48;7.55;;;;;;;;;;5016065;28;20438;-70
2023/06/29 08:24:01;;;;;;;15.63;6.85;;;;;;;;;;5016226;28;20091;-70
2023/06/29 08:26:28;;;;;;;13.40;6.50;;;;;;;;;;5015604;28;20026;-70
2023/06/29 08:28:54;;;;;;;18.55;7.43;;;;;;;;;;5015993;28;20112;-69
2023/06/29 08:31:20;;;;;;;15.00;7.13;;;;;;;;;;5015988;28;20029;-69
2023/06/29 08:33:46;;;;;;;11.70;6.90;;;;;;;;;;5015833;28;20096;-69
2023/06/29 08:36:12;;;;;;;13.93;6.70;;;;;;;;;;5015561;28;20498;-70
2023/06/29 08:38:38;;;;;;;10.93;6.43;;;;;;;;;;5016210;28;20579;-69
2023/06/29 08:41:05;;;;;;;11.27;6.72;;;;;;;;;;5015649;28;20030;-70
2023/06/29 08:43:31;;;;;;;9.10;6.28;;;;;;;;;;5015890;28;20034;-69
2023/06/29 08:45:57;;;;;;;10.90;6.93;;;;;;;;;;5015358;28;20059;-69
2023/06/29 08:48:23;;;;;;;14.98;6.88;;;;;;;;;;5015504;28;20044;-70
2023/06/29 08:50:54;;;;;;;8.90;5.80;;;;;;;;;;5015705;28;20117;-70
2023/06/29 08:53:20;;;;;;;11.57;6.10;;;;;;;;;;5016031;28;20044;-70
2023/06/29 08:55:47;;;;;;;14.25;6.57;;;;;;;;;;5015983;28;20029;-69
2023/06/29 08:58:13;;;;;;;14.27;6.93;;;;;;;;;;5015347;28;20026;-69
2023/06/29 09:00:40;;;;;;;14.48;6.90;;;;;;;;;;5015044;28;20037;-69
2023/06/29 09:03:06;;;;;;;11.45;6.80;;;;;;;;;;5014131;28;20029;-70
2023/06/29 09:05:34;;;;;;;11.50;6.65;;;;;;;;;;5015572;28;20471;-70
2023/06/29 09:08:01;;;;;;;13.93;7.43;;;;;;;;;;5014786;28;20038;-70
2023/06/29 09:10:27;;;;;;;13.55;7.00;;;;;;;;;;5015001;28;20038;-70
2023/06/29 09:12:53;;;;;;;13.43;7.55;;;;;;;;;;5015326;28;20038;-70
2023/06/29 09:15:19;;;;;;;13.57;6.60;;;;;;;;;;5015158;28;20065;-70
2023/06/29 09:17:46;;;;;;;14.05;6.68;;;;;;;;;;5015526;28;20041;-70
2023/06/29 09:20:15;;;;;;;15.45;6.70;;;;;;;;;;5015092;28;20452;-69
2023/06/29 09:22:41;;;;;;;10.15;6.35;;;;;;;;;;5015350;28;20076;-70
2023/06/29 09:25:09;;;;;;;13.43;6.60;;;;;;;;;;5014978;28;20036;-70
2023/06/29 09:27:35;;;;;;;11.45;5.90;;;;;;;;;;5015315;28;20554;-70
2023/06/29 09:30:02;;;;;;;8.52;5.68;;;;;;;;;;5014988;28;20105;-70
2023/06/29 09:32:29;;;;;;;8.77;5.88;;;;;;;;;;5014907;28;20033;-70
2023/06/29 09:34:56;;;;;;;10.75;6.00;;;;;;;;;;5015017;28;20483;-70
2023/06/29 09:37:22;;;;;;;14.00;5.90;;;;;;;;;;5016065;28;20037;-70
2023/06/29 09:40:07;;;;;;;8.82;5.55;;;;;;;;;;5015061;28;20076;-70
2023/06/29 09:42:38;;;;;;;9.20;4.88;;;;;;;;;;5015010;28;20376;-70
2023/06/29 09:45:07;;;;;;;7.40;4.70;;;;;;;;;;5015112;28;20026;-69
2023/06/29 09:47:33;;;;;;;11.20;6.30;;;;;;;;;;5014751;28;20101;-70
2023/06/29 09:49:59;;;;;;;11.40;5.88;;;;;;;;;;5013767;28;20032;-69
2023/06/29 09:52:25;;;;;;;8.93;5.75;;;;;;;;;;5014940;28;20101;-70
2023/06/29 09:54:51;;;;;;;10.48;5.70;;;;;;;;;;5014492;28;20164;-70
2023/06/29 09:57:18;;;;;;;9.43;5.47;;;;;;;;;;5014432;28;20030;-70
2023/06/29 09:59:44;;;;;;;9.95;5.32;;;;;;;;;;5013971;28;20033;-70
2023/06/29 10:02:11;;;;;;;9.70;5.35;;;;;;;;;;5014164;28;20127;-70
2023/06/29 10:04:37;;;;;;;9.23;5.35;;;;;;;;;;5014714;28;20034;-70
2023/06/29 10:07:05;;;;;;;7.80;5.47;;;;;;;;;;5014348;28;20033;-70
2023/06/29 10:09:35;;;;;;;9.60;4.72;;;;;;;;;;5013863;28;20044;-70
2023/06/29 10:12:01;;;;;;;10.40;4.53;;;;;;;;;;4994941;28;20125;-70
2023/06/29 10:14:27;;;;;;;8.68;4.65;;;;;;;;;;4994791;28;20405;-70
2023/06/29 10:16:53;;;;;;;6.78;4.70;;;;;;;;;;5012523;28;20022;-70
2023/06/29 10:19:21;;;;;;;8.50;4.75;;;;;;;;;;5013216;28;20033;-70
2023/06/29 10:21:48;;;;;;;10.95;5.45;;;;;;;;;;5013777;28;20034;-70
2023/06/29 10:24:16;;;;;;;12.13;5.63;;;;;;;;;;5014206;28;20030;-70
2023/06/29 10:26:43;;;;;;;9.75;4.53;;;;;;;;;;5013762;28;20065;-70
2023/06/29 10:29:09;;;;;;;10.25;5.88;;;;;;;;;;5014020;28;20038;-70
2023/06/29 10:31:35;;;;;;;10.60;5.18;;;;;;;;;;5014248;28;20026;-70
2023/06/29 10:34:01;;;;;;;12.38;5.10;;;;;;;;;;5013890;28;20076;-70
2023/06/29 10:36:43;;;;;;;7.47;4.78;;;;;;;;;;5013514;28;20033;-69
2023/06/29 10:39:30;;;;;;;13.40;4.85;;;;;;;;;;5013517;28;20124;-70
2023/06/29 10:41:56;;;;;;;9.43;5.43;;;;;;;;;;5013761;28;20040;-70
2023/06/29 10:44:22;;;;;;;8.70;4.30;;;;;;;;;;5013925;28;20037;-70
2023/06/29 10:46:48;;;;;;;7.18;4.30;;;;;;;;;;5012978;28;20053;-69
2023/06/29 10:49:22;;;;;;;8.10;4.07;;;;;;;;;;5013782;28;20057;-69
2023/06/29 10:51:50;;;;;;;9.73;3.95;;;;;;;;;;5012952;28;20030;-69
2023/06/29 10:54:16;;;;;;;6.72;4.25;;;;;;;;;;5013772;28;20026;-70
2023/06/29 10:56:55;;;;;;;8.50;4.22;;;;;;;;;;5013672;28;20040;-70
2023/06/29 10:59:21;;;;;;;9.90;4.47;;;;;;;;;;5013101;28;20033;-70
2023/06/29 11:01:47;;;;;;;6.93;4.40;;;;;;;;;;5013504;28;20087;-70
2023/06/29 11:04:13;;;;;;;10.18;5.18;;;;;;;;;;5013600;28;20555;-69
2023/06/29 11:06:39;;;;;;;12.00;5.03;;;;;;;;;;5012614;28;20033;-70
2023/06/29 11:09:13;;;;;;;7.68;4.88;;;;;;;;;;5012753;28;20042;-70
2023/06/29 11:11:42;;;;;;;6.13;4.65;;;;;;;;;;5013581;28;20054;-69
2023/06/29 11:14:11;;;;;;;10.00;5.85;;;;;;;;;;5013202;28;20398;-70
2023/06/29 11:16:39;;;;;;;9.88;5.35;;;;;;;;;;5013641;28;20058;-70
2023/06/29 11:19:05;;;;;;;10.93;5.35;;;;;;;;;;5012885;28;20030;-70
2023/06/29 11:21:30;;;;;;;8.50;5.07;;;;;;;;;;5012805;28;20391;-70
2023/06/29 11:23:57;;;;;;;10.30;5.35;;;;;;;;;;5013320;28;20037;-70
2023/06/29 11:26:23;;;;;;;14.15;5.80;;;;;;;;;;5012941;28;20121;-70
2023/06/29 11:28:50;;;;;;;11.10;6.05;;;;;;;;;;5013174;28;20034;-70
2023/06/29 11:31:16;;;;;;;13.13;6.13;;;;;;;;;;5012910;28;20025;-70
2023/06/29 11:33:50;;;;;;;9.80;5.95;;;;;;;;;;5012927;28;20022;-70
2023/06/29 11:36:26;;;;;;;11.60;6.80;;;;;;;;;;5012704;28;20030;-70
2023/06/29 11:39:03;;;;;;;13.80;6.63;;;;;;;;;;5013037;28;20042;-69
2023/06/29 11:41:30;;;;;;;10.40;6.78;;;;;;;;;;5013282;28;20057;-70
2023/06/29 11:43:57;;;;;;;11.60;6.75;;;;;;;;;;5013397;28;20513;-70
2023/06/29 11:46:23;;;;;;;10.50;7.38;;;;;;;;;;5012758;28;20376;-70
2023/06/29 11:48:56;;;;;;;10.40;7.43;;;;;;;;;;5012753;28;20038;-69
2023/06/29 11:51:25;;;;;;;14.48;7.45;;;;;;;;;;5012968;28;20038;-69
2023/06/29 11:53:51;;;;;;;12.75;8.27;;;;;;;;;;5013200;28;20475;-70
2023/06/29 11:56:25;;;;;;;13.65;8.35;;;;;;;;;;5013177;28;20029;-69
2023/06/29 11:58:51;;;;;;;15.10;7.95;;;;;;;;;;5012909;28;20022;-69
2023/06/29 12:01:17;;;;;;;14.68;8.00;;;;;;;;;;5012774;28;20037;-69
2023/06/29 12:03:43;;;;;;;14.30;7.60;;;;;;;;;;5013096;28;20038;-69
2023/06/29 12:06:09;;;;;;;11.35;7.68;;;;;;;;;;5013203;28;20132;-69
2023/06/29 12:08:40;;;;;;;16.73;7.80;;;;;;;;;;5012765;28;20068;-70
2023/06/29 12:11:06;;;;;;;14.75;7.45;;;;;;;;;;5012729;28;20029;-69
2023/06/29 12:13:32;;;;;;;14.55;7.50;;;;;;;;;;5015823;28;20033;-69
2023/06/29 12:16:01;;;;;;;13.10;7.93;;;;;;;;;;5016751;28;20114;-69
2023/06/29 12:18:28;;;;;;;14.48;7.50;;;;;;;;;;5016471;28;20033;-70
2023/06/29 12:20:54;;;;;;;13.05;7.35;;;;;;;;;;5016191;28;20056;-69
2023/06/29 12:23:21;;;;;;;10.70;7.38;;;;;;;;;;5016408;28;20085;-69
2023/06/29 12:25:49;;;;;;;13.95;7.72;;;;;;;;;;5016443;28;20120;-69
2023/06/29 12:28:16;;;;;;;14.95;7.22;;;;;;;;;;5016031;28;20022;-69
2023/06/29 12:30:42;;;;;;;12.07;7.57;;;;;;;;;;5015870;28;20060;-69
2023/06/29 12:33:09;;;;;;;11.52;8.10;;;;;;;;;;5016387;28;20080;-69
2023/06/29 12:35:35;;;;;;;15.00;7.88;;;;;;;;;;5016431;28;20026;-69
2023/06/29 12:38:01;;;;;;;14.25;7.95;;;;;;;;;;5015728;28;20030;-69
2023/06/29 12:40:27;;;;;;;12.30;8.27;;;;;;;;;;5016142;28;20476;-69
2023/06/29 12:42:54;;;;;;;11.77;8.35;;;;;;;;;;5015768;28;20041;-69
2023/06/29 12:45:20;;;;;;;15.23;8.48;;;;;;;;;;5016377;28;20041;-69
2023/06/29 12:47:46;;;;;;;11.88;8.40;;;;;;;;;;5015820;28;20030;-69
2023/06/29 12:50:12;;;;;;;12.68;9.13;;;;;;;;;;5015410;28;20025;-69
2023/06/29 12:52:38;;;;;;;13.95;8.88;;;;;;;;;;5016134;28;20544;-71
2023/06/29 12:55:04;;;;;;;13.38;7.90;;;;;;;;;;5015634;28;20061;-70
2023/06/29 12:57:30;;;;;;;14.75;8.73;;;;;;;;;;5015890;28;20491;-70
2023/06/29 12:59:57;;;;;;;12.57;7.53;;;;;;;;;;5015518;28;20038;-70
2023/06/29 13:02:23;;;;;;;14.52;8.43;;;;;;;;;;5015600;28;20034;-70
2023/06/29 13:04:49;;;;;;;14.30;8.35;;;;;;;;;;5015844;28;20030;-70
2023/06/29 13:07:17;;;;;;;14.13;8.90;;;;;;;;;;5015174;28;20045;-70
2023/06/29 13:09:43;;;;;;;15.05;8.48;;;;;;;;;;5014713;28;20042;-70
2023/06/29 13:12:09;;;;;;;14.57;8.38;;;;;;;;;;5015165;28;20040;-69
2023/06/29 13:14:35;;;;;;;16.23;9.13;;;;;;;;;;5014671;28;20505;-70
2023/06/29 13:17:01;;;;;;;12.95;8.43;;;;;;;;;;5015499;28;20022;-70
2023/06/29 13:19:28;;;;;;;13.25;8.40;;;;;;;;;;5015394;28;20037;-70
2023/06/29 13:21:54;;;;;;;15.07;8.85;;;;;;;;;;5015553;28;20040;-70
2023/06/29 13:24:21;;;;;;;15.27;9.13;;;;;;;;;;5014651;28;20045;-70
2023/06/29 13:26:47;;;;;;;15.95;8.90;;;;;;;;;;5014682;28;20503;-70
2023/06/29 13:29:13;;;;;;;16.23;9.07;;;;;;;;;;5013761;28;20109;-70
2023/06/29 13:31:38;;;;;;;14.82;8.70;;;;;;;;;;5014953;28;20471;-70
2023/06/29 13:34:06;;;;;;;13.00;8.18;;;;;;;;;;5014734;28;20037;-70
2023/06/29 13:36:32;;;;;;;12.15;8.80;;;;;;;;;;5014754;28;20025;-70
2023/06/29 13:38:58;;;;;;;15.77;8.93;;;;;;;;;;5015181;28;20395;-70
2023/06/29 13:41:39;;;;;;;12.60;9.23;;;;;;;;;;5014926;28;20463;-70
2023/06/29 13:44:05;;;;;;;17.50;9.85;;;;;;;;;;5014837;28;20038;-70
2023/06/29 13:46:32;;;;;;;14.07;9.32;;;;;;;;;;5014461;28;20058;-70
2023/06/29 13:48:58;;;;;;;13.75;9.70;;;;;;;;;;5014488;28;20061;-70
2023/06/29 13:51:24;;;;;;;15.75;10.40;;;;;;;;;;5014619;28;20036;-70
2023/06/29 13:53:50;;;;;;;15.10;10.77;;;;;;;;;;5014907;28;20426;-70
2023/06/29 13:56:16;;;;;;;13.55;10.50;;;;;;;;;;5014907;28;20084;-70
2023/06/29 13:58:42;;;;;;;16.45;10.48;;;;;;;;;;5014816;28;20030;-70
2023/06/29 14:01:08;;;;;;;18.65;11.25;;;;;;;;;;5014905;28;20099;-70
2023/06/29 14:03:34;;;;;;;15.98;11.07;;;;;;;;;;5014361;28;20040;-70
2023/06/29 14:06:00;;;;;;;19.20;11.57;;;;;;;;;;5014701;28;20092;-70
2023/06/29 14:08:26;;;;;;;16.52;11.00;;;;;;;;;;5014105;28;20084;-70
2023/06/29 14:10:52;;;;;;;21.60;11.88;;;;;;;;;;5014389;28;20065;-70
2023/06/29 14:13:18;;;;;;;17.02;12.18;;;;;;;;;;5014438;28;20112;-69
2023/06/29 14:15:44;;;;;;;18.67;12.18;;;;;;;;;;5014366;28;20404;-69
2023/06/29 14:18:10;;;;;;;22.13;13.88;;;;;;;;;;5014594;28;20148;-70
2023/06/29 14:20:36;;;;;;;20.98;13.75;;;;;;;;;;5013979;28;20033;-70
2023/06/29 14:23:02;;;;;;;19.60;13.10;;;;;;;;;;5014394;28;20034;-70
2023/06/29 14:25:28;;;;;;;21.75;14.02;;;;;;;;;;5015039;28;20034;-70
2023/06/29 14:27:54;;;;;;;22.00;13.70;;;;;;;;;;5014162;28;20041;-69